Date,TemperatureHighF,TemperatureAvgF,TemperatureLowF,DewpointHighF,DewpointAvgF,DewpointLowF,HumidityHigh,HumidityAvg,HumidityLow,PressureMaxIn,PressureMinIn,WindSpeedMaxMPH,WindSpeedAvgMPH,GustSpeedMaxMPH,PrecipitationSumIn
2013-2-1,75.1,63.9,55.7,99.9,91.6,83.1,0,0,100,30.50,30.37,16,1,16,0.00
2013-2-2,79.4,66.7,56.0,99.9,93.6,83.1,0,0,100,30.38,30.25,13,2,13,0.00
2013-2-3,78.1,68.2,59.6,99.9,95.5,87.3,0,0,100,30.41,30.20,15,3,15,0.01
2013-2-4,76.5,70.9,62.7,99.9,97.9,90.9,0,0,100,30.20,29.96,13,3,13,0.01
2013-2-5,84.3,76.5,70.8,99.9,99.9,99.6,0,0,100,30.11,29.98,14,2,14,1.02
2013-2-6,73.3,70.8,69.1,99.9,99.5,97.9,0,0,100,30.16,29.98,27,6,27,0.53
2013-2-7,75.6,70.4,67.4,99.9,98.4,96.2,0,0,100,30.09,29.98,11,1,11,0.00
2013-2-8,75.3,68.7,62.3,99.9,96.9,90.5,0,0,100,30.26,30.08,20,7,20,0.00
2013-2-9,75.4,67.2,57.8,99.9,94.8,85.4,0,0,100,30.26,30.03,22,6,22,0.00
2013-2-10,83.4,75.1,69.9,99.9,99.8,98.9,0,0,100,30.06,29.88,29,6,29,0.11
2013-2-11,72.0,64.2,60.9,99.9,92.6,88.9,0,0,100,30.20,30.05,22,8,22,0.74
2013-2-12,78.5,67.4,62.6,99.9,95.2,90.6,0,0,100,30.10,29.85,20,5,20,0.13
2013-2-13,66.6,60.6,53.9,95.1,88.6,80.7,0,0,100,30.22,30.04,22,7,22,0.04
2013-2-14,71.8,59.1,47.9,99.9,86.8,74.3,0,0,100,30.26,30.14,10,1,10,0.00
2013-2-15,73.7,61.3,51.7,99.9,89.0,78.4,0,0,100,30.41,30.19,26,6,26,0.01
2013-2-16,66.0,56.2,47.4,94.6,83.6,73.7,0,0,100,30.53,30.34,21,7,21,0.00
2013-2-17,73.3,59.8,48.8,99.9,87.1,75.3,0,0,100,30.40,30.26,23,3,23,0.00
2013-2-18,74.4,71.3,60.9,99.9,98.7,88.7,0,0,100,30.16,29.98,32,9,32,0.62
2013-2-19,72.3,63.1,55.4,99.9,91.2,82.7,0,0,100,30.35,30.15,22,7,22,0.02
2013-2-20,63.4,59.7,54.5,91.7,87.6,81.7,0,0,100,30.29,29.99,26,10,26,0.00
2013-2-21,79.4,71.3,62.9,99.9,97.6,90.9,0,0,100,29.99,29.77,26,8,26,0.03
2013-2-22,71.1,65.3,59.6,99.9,93.8,87.4,0,0,100,30.08,29.94,17,6,17,0.00
2013-2-23,72.8,62.4,53.9,99.9,90.4,81.0,0,0,100,30.10,29.97,16,4,16,0.00
2013-2-24,71.3,62.9,51.4,99.9,91.1,78.2,0,0,100,30.06,29.79,16,4,16,0.05
2013-2-25,79.2,69.0,54.7,99.9,95.7,81.7,0,0,100,29.82,29.55,30,7,30,0.49
2013-2-26,69.6,58.7,49.6,98.7,86.4,76.2,0,0,100,30.05,29.82,28,6,28,0.00
2013-2-27,78.5,63.9,53.1,99.9,90.9,80.1,0,0,100,30.24,30.03,29,6,29,0.00
2013-2-28,61.2,53.8,48.0,89.2,80.9,74.4,0,0,100,30.37,30.22,22,8,22,0.00